Time;durP1;ratioP1;P1;durP2;ratioP2;P2;SDS_P1;SDS_P2;PMS_P1;PMS_P2;Temp;Humidity;BMP_temperature;BMP_pressure;BME280_temperature;BME280_humidity;BME280_pressure;Samples;Min_cycle;Max_cycle;Signal;HPM_P1;HPM_P2
2022/03/25 00:00:00;;;;;;;35.40;25.83;;;;;;;5.54;100.00;101822.16;5049139;28;20035;-59
2022/03/25 00:02:26;;;;;;;38.38;26.85;;;;;;;5.37;100.00;101824.03;5033736;28;20221;-59
2022/03/25 00:04:52;;;;;;;46.60;26.08;;;;;;;5.27;100.00;101832.78;5032137;28;20024;-59
2022/03/25 00:07:17;;;;;;;34.97;24.48;;;;;;;5.12;100.00;101815.47;5031646;28;20033;-59
2022/03/25 00:09:43;;;;;;;39.03;26.27;;;;;;;5.04;100.00;101813.75;5031263;28;20021;-59
2022/03/25 00:12:08;;;;;;;39.50;26.73;;;;;;;4.98;100.00;101824.22;5031372;28;20857;-59
2022/03/25 00:14:34;;;;;;;41.13;27.52;;;;;;;4.88;100.00;101815.59;5033042;28;20784;-59
2022/03/25 00:17:00;;;;;;;39.03;26.10;;;;;;;4.77;100.00;101832.97;5032052;28;20536;-59
2022/03/25 00:19:25;;;;;;;46.83;26.98;;;;;;;4.61;100.00;101815.69;5031824;28;20048;-59
2022/03/25 00:21:50;;;;;;;37.30;26.73;;;;;;;4.49;100.00;101814.00;5033364;28;20024;-59
2022/03/25 00:24:16;;;;;;;34.50;26.52;;;;;;;4.43;100.00;101818.31;5032883;28;20156;-59
2022/03/25 00:26:41;;;;;;;43.90;27.90;;;;;;;4.42;100.00;101827.03;5031807;28;20123;-59
2022/03/25 00:29:07;;;;;;;40.78;27.38;;;;;;;4.31;100.00;101828.75;5031555;28;20038;-59
2022/03/25 00:31:32;;;;;;;42.60;29.40;;;;;;;4.24;100.00;101821.84;5031160;28;20972;-59
2022/03/25 00:33:57;;;;;;;42.42;30.50;;;;;;;4.18;100.00;101827.06;5033204;28;20029;-59
2022/03/25 00:36:23;;;;;;;42.47;28.77;;;;;;;4.12;100.00;101827.94;5033598;28;20787;-59
2022/03/25 00:38:49;;;;;;;44.42;28.77;;;;;;;3.99;100.00;101827.06;5032593;28;20060;-59
2022/03/25 00:41:16;;;;;;;42.35;28.58;;;;;;;3.96;100.00;101829.66;5032090;28;20028;-59
2022/03/25 00:43:46;;;;;;;35.03;25.83;;;;;;;3.88;100.00;101826.22;5033864;28;20025;-59
2022/03/25 00:46:12;;;;;;;36.78;26.90;;;;;;;3.80;100.00;101829.66;5029479;28;20029;-59
2022/03/25 00:48:38;;;;;;;42.28;28.88;;;;;;;3.76;100.00;101831.38;5028811;28;20067;-59
2022/03/25 00:51:04;;;;;;;44.25;30.05;;;;;;;3.68;100.00;101827.94;5028036;28;20028;-59
2022/03/25 00:53:30;;;;;;;45.80;30.42;;;;;;;3.47;100.00;101802.78;5027746;28;20033;-59
2022/03/25 00:55:56;;;;;;;44.25;31.00;;;;;;;3.63;100.00;101831.38;5029904;28;20127;-60
2022/03/25 00:58:21;;;;;;;40.67;29.00;;;;;;;3.56;100.00;101825.31;5029197;28;20025;-59
2022/03/25 01:00:47;;;;;;;44.22;31.13;;;;;;;3.54;100.00;101829.66;5028189;28;20039;-59
2022/03/25 01:03:13;;;;;;;42.80;32.13;;;;;;;3.56;100.00;101822.69;5045328;28;20228;-59
2022/03/25 01:05:39;;;;;;;44.50;30.08;;;;;;;3.52;100.00;101823.56;5028832;28;20052;-60
2022/03/25 01:08:06;;;;;;;44.80;30.25;;;;;;;3.29;100.00;101799.28;5027741;28;20230;-59
2022/03/25 01:10:31;;;;;;;45.20;31.48;;;;;;;3.40;100.00;101823.56;5029272;28;20036;-59
2022/03/25 01:12:57;;;;;;;48.13;32.15;;;;;;;3.36;100.00;101824.41;5030671;28;20850;-59
2022/03/25 01:15:23;;;;;;;42.08;30.10;;;;;;;3.27;100.00;101807.09;5028915;28;20025;-59
2022/03/25 01:17:48;;;;;;;46.45;30.98;;;;;;;3.30;100.00;101821.78;5028852;28;20136;-59
2022/03/25 01:20:14;;;;;;;52.53;31.00;;;;;;;3.24;100.00;101826.97;5028493;28;20039;-59
2022/03/25 01:22:39;;;;;;;42.28;30.42;;;;;;;3.16;100.00;101813.09;5027903;28;20032;-59
2022/03/25 01:25:07;;;;;;;44.33;30.55;;;;;;;2.99;100.00;101800.94;5027708;28;20895;-59
2022/03/25 01:27:33;;;;;;;44.13;31.83;;;;;;;2.96;100.00;101819.09;5022239;28;20059;-59
2022/03/25 01:29:58;;;;;;;49.72;31.70;;;;;;;2.93;100.00;101811.31;5027635;28;20770;-59
2022/03/25 01:32:24;;;;;;;42.20;30.67;;;;;;;2.87;100.00;101816.44;5027311;28;20032;-59
2022/03/25 01:34:50;;;;;;;45.15;32.50;;;;;;;2.83;100.00;101816.44;5027397;28;20087;-59
2022/03/25 01:37:15;;;;;;;48.08;33.85;;;;;;;2.78;100.00;101811.22;5027106;28;20847;-59
2022/03/25 01:39:40;;;;;;;53.22;34.50;;;;;;;2.79;100.00;101810.38;5029780;28;20872;-59
2022/03/25 01:42:06;;;;;;;49.42;31.92;;;;;;;2.77;100.00;101804.28;5027898;28;20033;-59
2022/03/25 01:44:31;;;;;;;48.72;32.15;;;;;;;2.68;100.00;101788.69;5029259;28;20043;-59
2022/03/25 01:46:58;;;;;;;46.92;32.85;;;;;;;2.71;100.00;101799.09;5028819;28;20033;-59
2022/03/25 01:49:24;;;;;;;46.47;33.17;;;;;;;2.34;100.00;101745.31;5027682;28;20028;-58
2022/03/25 01:51:52;;;;;;;52.95;34.65;;;;;;;2.41;100.00;101763.50;5027307;28;20932;-59
2022/03/25 01:54:23;;;;;;;55.60;34.55;;;;;;;2.58;100.00;101805.97;5026728;28;20139;-59
2022/03/25 01:56:55;;;;;;;63.65;39.58;;;;;;;2.31;100.00;101755.66;5027612;28;20024;-58
2022/03/25 01:59:21;;;;;;;53.15;37.58;;;;;;;2.38;100.00;101757.44;5026712;28;20031;-59
2022/03/25 02:01:48;;;;;;;59.67;38.22;;;;;;;2.48;100.00;101785.16;5027252;28;20044;-59
2022/03/25 02:04:13;;;;;;;57.00;36.08;;;;;;;2.60;100.00;101797.31;5028202;28;20035;-59
2022/03/25 02:06:39;;;;;;;47.97;36.65;;;;;;;2.61;100.00;101812.00;5026817;28;20793;-58
2022/03/25 02:09:04;;;;;;;54.20;35.45;;;;;;;2.62;100.00;101804.25;5028725;28;20086;-59
2022/03/25 02:11:31;;;;;;;58.88;34.80;;;;;;;2.71;100.00;101809.47;5030542;28;20036;-58
2022/03/25 02:13:56;;;;;;;55.72;35.47;;;;;;;2.76;100.00;101812.09;5026529;28;20129;-58
2022/03/25 02:16:43;;;;;;;48.45;34.97;;;;;;;2.72;100.00;101803.44;5026524;28;20033;-58
2022/03/25 02:19:11;;;;;;;43.38;32.45;;;;;;;2.68;100.00;101809.47;5028190;28;20879;-58
2022/03/25 02:21:38;;;;;;;50.97;32.92;;;;;;;2.61;100.00;101801.63;5026730;28;20810;-58
2022/03/25 02:24:05;;;;;;;49.30;30.95;;;;;;;2.44;100.00;101791.16;5026426;28;20186;-58
2022/03/25 02:26:31;;;;;;;44.03;30.58;;;;;;;2.47;100.00;101805.03;5026447;28;20083;-58
2022/03/25 02:28:56;;;;;;;45.33;32.30;;;;;;;2.38;100.00;101788.56;5026813;28;20025;-58
2022/03/25 02:31:22;;;;;;;45.90;33.67;;;;;;;2.40;100.00;101805.00;5028035;28;20040;-58
2022/03/25 02:33:48;;;;;;;52.13;36.20;;;;;;;2.40;100.00;101802.41;5028166;28;20040;-58
2022/03/25 02:36:13;;;;;;;54.35;37.22;;;;;;;2.44;100.00;101806.72;5029747;28;20057;-58
2022/03/25 02:38:38;;;;;;;57.20;40.20;;;;;;;2.50;100.00;101793.81;5030777;28;20132;-59
2022/03/25 02:41:05;;;;;;;51.47;33.80;;;;;;;2.55;100.00;101797.28;5045808;28;20219;-59
2022/03/25 02:43:30;;;;;;;48.42;34.20;;;;;;;2.46;100.00;101795.53;5029454;28;20237;-59
2022/03/25 02:45:56;;;;;;;50.05;32.92;;;;;;;2.38;100.00;101794.59;5033370;28;20546;-59
2022/03/25 02:48:21;;;;;;;49.05;33.47;;;;;;;2.33;100.00;101803.22;5035692;28;20042;-59
2022/03/25 02:50:47;;;;;;;49.65;36.83;;;;;;;2.29;100.00;101802.34;5036868;28;20032;-58
2022/03/25 02:53:16;;;;;;;48.90;36.17;;;;;;;2.30;100.00;101813.59;5038050;28;20215;-59
2022/03/25 02:55:42;;;;;;;49.30;37.05;;;;;;;2.28;100.00;101812.69;5038359;28;20021;-59
2022/03/25 02:58:08;;;;;;;72.88;49.22;;;;;;;2.41;100.00;101812.78;5038246;28;20063;-59
2022/03/25 03:00:34;;;;;;;69.13;44.45;;;;;;;2.60;100.00;101805.97;5039043;28;20067;-59
2022/03/25 03:03:00;;;;;;;70.45;42.63;;;;;;;2.83;100.00;101813.84;5041156;28;20032;-59
2022/03/25 03:05:27;;;;;;;60.20;40.67;;;;;;;2.81;100.00;101808.66;5040404;28;20891;-59
2022/03/25 03:07:52;;;;;;;66.63;40.35;;;;;;;2.51;100.00;101779.97;5041174;28;20033;-58
2022/03/25 03:10:18;;;;;;;62.75;41.15;;;;;;;2.47;100.00;101773.03;5044531;28;20028;-58
2022/03/25 03:12:44;;;;;;;56.58;41.67;;;;;;;2.42;100.00;101774.75;5044669;28;20135;-58
2022/03/25 03:15:11;;;;;;;50.78;36.85;;;;;;;2.49;100.00;101797.25;5050358;28;20118;-58
2022/03/25 03:17:37;;;;;;;61.20;42.00;;;;;;;2.51;100.00;101816.28;5041930;28;20028;-59
2022/03/25 03:20:03;;;;;;;59.70;41.65;;;;;;;2.00;100.00;101734.75;5040634;28;20033;-58
2022/03/25 03:22:29;;;;;;;70.18;44.47;;;;;;;2.48;100.00;101817.16;5040278;28;20048;-58
2022/03/25 03:24:54;;;;;;;62.75;42.38;;;;;;;2.48;100.00;101817.16;5040315;28;20071;-59
2022/03/25 03:27:20;;;;;;;65.00;45.90;;;;;;;2.55;100.00;101818.03;5043143;28;20086;-59
2022/03/25 03:29:45;;;;;;;69.78;44.38;;;;;;;2.53;100.00;101806.81;5041308;28;20036;-59
2022/03/25 03:32:10;;;;;;;76.32;49.70;;;;;;;2.54;100.00;101811.09;5039648;28;20025;-59
2022/03/25 03:34:36;;;;;;;65.38;45.30;;;;;;;2.49;100.00;101807.63;5040240;28;20825;-59
2022/03/25 03:37:02;;;;;;;68.80;45.78;;;;;;;2.46;100.00;101813.69;5041454;28;20044;-59
2022/03/25 03:39:27;;;;;;;66.53;45.08;;;;;;;2.42;100.00;101811.06;5044628;28;20036;-59
2022/03/25 03:41:52;;;;;;;63.70;44.10;;;;;;;2.39;100.00;101813.63;5045000;28;20143;-59
2022/03/25 03:44:18;;;;;;;65.50;45.40;;;;;;;2.36;100.00;101814.50;5044612;28;20021;-59
2022/03/25 03:46:43;;;;;;;66.57;47.10;;;;;;;2.26;100.00;101804.91;5043256;28;20042;-58
2022/03/25 03:49:09;;;;;;;74.13;46.10;;;;;;;2.30;100.00;101816.19;5042604;28;20020;-59
2022/03/25 03:51:34;;;;;;;70.20;48.53;;;;;;;2.28;100.00;101823.06;5041450;28;20094;-58
2022/03/25 03:54:00;;;;;;;71.22;44.85;;;;;;;2.24;100.00;101816.13;5039155;28;20729;-59
2022/03/25 03:56:26;;;;;;;65.05;45.53;;;;;;;2.19;100.00;101817.81;5039132;28;20090;-59
2022/03/25 03:58:51;;;;;;;70.05;48.80;;;;;;;2.08;100.00;101806.50;5040917;28;20154;-59
2022/03/25 04:01:17;;;;;;;72.95;46.53;;;;;;;2.11;100.00;101819.50;5040409;28;20395;-59
2022/03/25 04:03:42;;;;;;;67.18;46.33;;;;;;;2.06;100.00;101820.31;5038560;28;20028;-59
2022/03/25 04:06:09;;;;;;;72.38;47.60;;;;;;;2.04;100.00;101821.16;5033016;28;20892;-60
2022/03/25 04:08:35;;;;;;;68.85;48.22;;;;;;;1.70;100.00;101768.22;5034340;28;20024;-59
2022/03/25 04:11:01;;;;;;;71.47;47.08;;;;;;;1.99;100.00;101825.47;5033469;28;20029;-59
2022/03/25 04:13:27;;;;;;;70.90;48.65;;;;;;;1.95;100.00;101821.97;5035913;28;20785;-57
2022/03/25 04:15:52;;;;;;;76.38;47.92;;;;;;;1.93;100.00;101821.09;5037132;28;20139;-58
2022/03/25 04:18:18;;;;;;;71.85;47.47;;;;;;;1.88;100.00;101825.38;5032796;28;20837;-58
2022/03/25 04:20:43;;;;;;;78.93;48.40;;;;;;;1.82;100.00;101825.34;5030232;28;20805;-57
2022/03/25 04:23:08;;;;;;;72.93;48.00;;;;;;;1.75;100.00;101820.94;5030956;28;20033;-57
2022/03/25 04:25:34;;;;;;;80.97;52.28;;;;;;;1.69;100.00;101810.50;5030913;28;20093;-58
2022/03/25 04:27:59;;;;;;;69.80;50.17;;;;;;;1.77;100.00;101821.81;5030404;28;20035;-57
2022/03/25 04:30:27;;;;;;;81.28;52.72;;;;;;;1.74;100.00;101824.38;5030330;28;20028;-58
2022/03/25 04:32:53;;;;;;;76.60;50.95;;;;;;;1.71;100.00;101833.84;5029479;28;20024;-57
2022/03/25 04:35:20;;;;;;;73.53;48.35;;;;;;;1.64;100.00;101827.75;5029022;28;20090;-57
2022/03/25 04:37:46;;;;;;;71.60;49.78;;;;;;;1.58;100.00;101832.00;5028958;28;20024;-57
2022/03/25 04:40:19;;;;;;;68.20;50.47;;;;;;;1.55;100.00;101827.69;5029158;28;20052;-57
2022/03/25 04:42:49;;;;;;;75.57;52.03;;;;;;;1.49;100.00;101832.78;5029048;28;20026;-57
2022/03/25 04:45:15;;;;;;;77.32;49.13;;;;;;;1.47;100.00;101829.31;5028344;28;20028;-57
2022/03/25 04:47:41;;;;;;;68.82;49.83;;;;;;;1.48;100.00;101831.06;5028592;28;20039;-57
2022/03/25 04:50:07;;;;;;;67.78;48.78;;;;;;;1.31;100.00;101809.31;5028906;28;20032;-57
2022/03/25 04:52:32;;;;;;;85.68;52.58;;;;;;;1.43;100.00;101827.53;5028383;28;20067;-58
2022/03/25 04:54:58;;;;;;;87.63;50.72;;;;;;;1.36;100.00;101833.50;5028285;28;20138;-58
2022/03/25 04:57:24;;;;;;;77.55;50.10;;;;;;;1.23;100.00;101823.88;5027255;28;20326;-58
2022/03/25 04:59:49;;;;;;;84.45;53.58;;;;;;;1.34;100.00;101833.50;5028064;28;20028;-58
2022/03/25 05:02:15;;;;;;;86.22;53.67;;;;;;;1.36;100.00;101838.69;5027200;28;20960;-58
2022/03/25 05:04:40;;;;;;;80.95;52.85;;;;;;;1.34;100.00;101845.56;5026661;28;20020;-58
2022/03/25 05:07:06;;;;;;;79.75;54.78;;;;;;;1.24;100.00;101823.91;5026998;28;20087;-58
2022/03/25 05:09:33;;;;;;;84.70;55.03;;;;;;;1.23;100.00;101826.47;5028023;28;20234;-58
2022/03/25 05:11:59;;;;;;;78.65;53.30;;;;;;;1.14;100.00;101821.19;5028105;28;20029;-58
2022/03/25 05:14:24;;;;;;;83.72;52.42;;;;;;;1.19;100.00;101837.63;5027475;28;20880;-58
2022/03/25 05:16:52;;;;;;;76.70;52.60;;;;;;;1.14;100.00;101845.38;5029007;28;20035;-57
2022/03/25 05:19:21;;;;;;;78.78;52.53;;;;;;;1.00;100.00;101827.09;5029146;28;20040;-58
2022/03/25 05:21:46;;;;;;;83.38;56.05;;;;;;;1.15;100.00;101848.81;5029356;28;20064;-58
2022/03/25 05:24:12;;;;;;;88.68;54.53;;;;;;;1.15;100.00;101848.81;5027664;28;20031;-58
2022/03/25 05:26:38;;;;;;;84.28;54.85;;;;;;;1.14;100.00;101855.72;5028426;28;20894;-58
2022/03/25 05:29:04;;;;;;;82.72;58.03;;;;;;;1.15;100.00;101851.41;5028207;28;20859;-58
2022/03/25 05:31:30;;;;;;;90.50;57.17;;;;;;;0.92;100.00;101808.00;5026780;28;20898;-57
2022/03/25 05:33:55;;;;;;;90.68;55.13;;;;;;;1.19;100.00;101847.97;5027846;28;20025;-57
2022/03/25 05:36:20;;;;;;;91.20;53.63;;;;;;;1.15;100.00;101851.41;5027793;28;20953;-58
2022/03/25 05:38:46;;;;;;;85.57;53.22;;;;;;;0.59;100.00;101770.53;5027243;28;20127;-58
2022/03/25 05:41:11;;;;;;;92.15;53.22;;;;;;;1.03;100.00;101855.59;5027359;28;20892;-58
2022/03/25 05:43:37;;;;;;;81.78;54.50;;;;;;;1.04;100.00;101853.88;5026980;28;20133;-58
2022/03/25 05:46:03;;;;;;;95.93;56.33;;;;;;;1.07;100.00;101853.03;5027074;28;20043;-58
2022/03/25 05:48:29;;;;;;;87.15;55.05;;;;;;;1.07;100.00;101858.22;5027579;28;20033;-59
2022/03/25 05:50:54;;;;;;;92.38;61.00;;;;;;;1.00;100.00;101842.63;5027156;28;20237;-58
2022/03/25 05:53:20;;;;;;;94.30;59.75;;;;;;;1.19;100.00;101866.09;5027052;28;20024;-58
2022/03/25 05:55:45;;;;;;;92.40;56.65;;;;;;;1.18;100.00;101848.84;5028726;28;20909;-58
2022/03/25 05:58:11;;;;;;;82.03;57.30;;;;;;;1.21;100.00;101861.81;5031333;28;20032;-58
2022/03/25 06:00:36;;;;;;;84.53;54.80;;;;;;;0.93;100.00;101811.47;5027340;28;20086;-58
2022/03/25 06:03:02;;;;;;;81.65;53.28;;;;;;;1.16;100.00;101853.13;5027643;28;20031;-58
2022/03/25 06:05:27;;;;;;;79.53;51.85;;;;;;;1.24;100.00;101869.63;5029290;28;20965;-58
2022/03/25 06:07:52;;;;;;;87.13;53.00;;;;;;;1.27;100.00;101867.94;5028423;28;20222;-58
2022/03/25 06:10:18;;;;;;;91.30;54.67;;;;;;;1.32;100.00;101870.59;5028172;28;20850;-58
2022/03/25 06:12:43;;;;;;;81.32;53.70;;;;;;;1.40;100.00;101875.00;5030104;28;20825;-58
2022/03/25 06:15:09;;;;;;;88.13;56.60;;;;;;;1.49;100.00;101875.06;5028924;28;20036;-58
2022/03/25 06:17:45;;;;;;;95.95;56.83;;;;;;;1.42;100.00;101831.00;5027503;28;20025;-58
2022/03/25 06:20:13;;;;;;;81.15;55.38;;;;;;;1.77;100.00;101868.44;5027768;28;20032;-58
2022/03/25 06:22:40;;;;;;;86.60;55.67;;;;;;;1.75;100.00;101843.41;5027465;28;20865;-58
2022/03/25 06:25:07;;;;;;;85.95;53.63;;;;;;;1.91;100.00;101861.69;5027383;28;20036;-58
2022/03/25 06:27:33;;;;;;;83.57;53.63;;;;;;;1.92;100.00;101850.47;5027063;28;20409;-58
2022/03/25 06:29:58;;;;;;;79.10;52.50;;;;;;;2.15;100.00;101873.09;5028355;28;20029;-58
2022/03/25 06:32:24;;;;;;;76.63;51.40;;;;;;;2.20;100.00;101861.91;5026378;28;20059;-58
2022/03/25 06:34:49;;;;;;;78.18;51.67;;;;;;;2.26;100.00;101861.09;5026583;28;20110;-58
2022/03/25 06:37:15;;;;;;;94.60;59.35;;;;;;;2.43;100.00;101867.28;5025159;28;20051;-58
2022/03/25 06:39:40;;;;;;;79.82;53.97;;;;;;;2.63;100.00;101868.25;5026897;28;20108;-58
2022/03/25 06:42:06;;;;;;;83.65;54.78;;;;;;;2.77;100.00;101876.97;5027328;28;20639;-58
2022/03/25 06:44:31;;;;;;;91.78;53.03;;;;;;;2.78;100.00;101863.13;5025155;28;20027;-58
2022/03/25 06:46:57;;;;;;;76.57;52.58;;;;;;;3.01;100.00;101877.09;5026106;28;20044;-58
2022/03/25 06:49:22;;;;;;;90.68;55.33;;;;;;;3.11;100.00;101875.38;5024897;28;20957;-58
2022/03/25 06:51:48;;;;;;;92.18;59.78;;;;;;;3.29;100.00;101883.25;5024935;28;20029;-59
2022/03/25 06:54:14;;;;;;;96.97;58.35;;;;;;;3.47;100.00;101866.88;5025047;28;20028;-59
2022/03/25 06:56:40;;;;;;;78.75;55.00;;;;;;;3.76;100.00;101880.78;5040777;28;20036;-58
2022/03/25 06:59:05;;;;;;;83.18;57.20;;;;;;;3.94;100.00;101880.81;5025659;28;20028;-58
2022/03/25 07:01:34;;;;;;;85.78;56.63;;;;;;;4.12;100.00;101888.59;5026691;28;20617;-58
2022/03/25 07:04:01;;;;;;;86.65;54.55;;;;;;;4.11;100.00;101857.41;5024743;28;20111;-59
2022/03/25 07:06:27;;;;;;;83.60;54.33;;;;;;;4.43;100.00;101891.19;5026421;28;20025;-58
2022/03/25 07:08:54;;;;;;;71.70;54.45;;;;;;;4.53;100.00;101879.88;5026027;28;20028;-58
2022/03/25 07:11:21;;;;;;;91.90;52.78;;;;;;;4.74;100.00;101892.88;5025509;28;20036;-58
2022/03/25 07:13:46;;;;;;;78.78;52.85;;;;;;;4.93;100.00;101896.31;5024373;28;20040;-58
2022/03/25 07:16:12;;;;;;;76.82;51.72;;;;;;;5.04;100.00;101891.91;5026628;28;20033;-59
2022/03/25 07:18:37;;;;;;;69.93;50.08;;;;;;;5.14;100.00;101891.88;5025969;28;20095;-58
2022/03/25 07:21:03;;;;;;;82.40;52.10;;;;;;;5.28;100.00;101890.94;5025387;28;20059;-58
2022/03/25 07:23:28;;;;;;;64.80;47.92;;;;;;;5.39;100.00;101899.59;5025590;28;20047;-59
2022/03/25 07:25:54;;;;;;;70.55;47.55;;;;;;;5.51;100.00;101894.31;5025529;28;20025;-58
2022/03/25 07:28:19;;;;;;;78.75;52.67;;;;;;;5.61;100.00;101896.00;5025602;28;20039;-58
2022/03/25 07:30:45;;;;;;;77.57;51.88;;;;;;;5.78;100.00;101898.50;5025782;28;20052;-59
2022/03/25 07:33:11;;;;;;;75.75;51.65;;;;;;;5.91;100.00;101890.63;5024851;28;20634;-58
2022/03/25 07:35:36;;;;;;;72.20;51.47;;;;;;;6.05;100.00;101896.59;5024550;28;20886;-58
2022/03/25 07:38:02;;;;;;;66.45;48.75;;;;;;;5.98;100.00;101863.59;5024600;28;20135;-58
2022/03/25 07:40:27;;;;;;;69.35;47.58;;;;;;;6.29;100.00;101903.34;5026601;28;20887;-58
2022/03/25 07:42:52;;;;;;;71.47;49.25;;;;;;;6.45;100.00;101909.31;5024588;28;20028;-58
2022/03/25 07:45:18;;;;;;;66.60;48.00;;;;;;;6.34;100.00;101874.63;5024368;28;20958;-58
2022/03/25 07:47:46;;;;;;;67.18;47.55;;;;;;;6.41;100.00;101886.72;5025458;28;20032;-58
2022/03/25 07:50:12;;;;;;;63.13;46.55;;;;;;;6.65;100.00;101912.63;5025260;28;20033;-58
2022/03/25 07:52:39;;;;;;;68.68;49.53;;;;;;;6.80;100.00;101922.03;5026525;28;20044;-59
2022/03/25 07:55:05;;;;;;;78.57;48.30;;;;;;;6.87;100.00;101918.47;5025017;28;20135;-59
2022/03/25 07:57:34;;;;;;;63.83;48.88;;;;;;;7.01;100.00;101925.28;5028179;28;20028;-58
2022/03/25 08:00:00;;;;;;;64.22;49.65;;;;;;;7.13;100.00;101927.75;5027862;28;20029;-58
2022/03/25 08:02:25;;;;;;;73.85;49.67;;;;;;;7.26;100.00;101922.41;5028496;28;20127;-59
2022/03/25 08:04:50;;;;;;;66.43;47.53;;;;;;;7.36;100.00;101926.63;5029040;28;20093;-58
2022/03/25 08:07:16;;;;;;;67.18;48.30;;;;;;;7.48;100.00;101929.06;5028377;28;20033;-59
2022/03/25 08:09:41;;;;;;;69.82;52.53;;;;;;;7.67;100.00;101935.81;5028628;28;20106;-58
2022/03/25 08:12:07;;;;;;;67.10;48.03;;;;;;;7.76;100.00;101940.91;5028039;28;20028;-58
2022/03/25 08:14:34;;;;;;;66.65;47.63;;;;;;;7.86;100.00;101933.81;5028514;28;20020;-59
2022/03/25 08:17:00;;;;;;;69.28;48.72;;;;;;;8.00;100.00;101945.81;5028414;28;20974;-59
2022/03/25 08:19:25;;;;;;;65.15;48.80;;;;;;;8.07;100.00;101930.88;5028491;28;20039;-58
2022/03/25 08:21:50;;;;;;;62.42;48.38;;;;;;;8.26;100.00;101944.53;5028380;28;20837;-58
2022/03/25 08:29:45;;;;;;;65.65;48.15;;;;;;;8.58;100.00;101950.16;5028815;28;20820;-58
2022/03/25 08:32:11;;;;;;;71.18;48.88;;;;;;;8.66;100.00;101963.97;5028585;28;20037;-58
2022/03/25 08:34:36;;;;;;;55.97;45.60;;;;;;;8.73;100.00;101963.84;5028222;28;20869;-59
2022/03/25 08:37:02;;;;;;;56.08;44.42;;;;;;;8.74;100.00;101954.22;5029282;28;20881;-58
2022/03/25 08:39:27;;;;;;;62.03;44.17;;;;;;;8.85;100.00;101960.16;5028238;28;20921;-59
2022/03/25 08:41:53;;;;;;;64.40;45.15;;;;;;;8.95;100.00;101966.97;5028141;28;20113;-58
2022/03/25 08:44:18;;;;;;;71.10;46.80;;;;;;;9.05;100.00;101960.66;5028096;28;20021;-58
2022/03/25 08:46:44;;;;;;;68.68;45.75;;;;;;;9.10;100.00;101952.69;5027270;28;20908;-59
2022/03/25 08:49:10;;;;;;;69.43;46.65;;;;;;;9.26;100.00;101966.38;5027146;28;20024;-59
2022/03/25 08:51:35;;;;;;;64.85;46.50;;;;;;;9.33;100.00;101954.88;5027543;28;20032;-58
2022/03/25 08:54:01;;;;;;;54.78;42.00;;;;;;;9.45;100.00;101958.09;5028094;28;20032;-58
2022/03/25 08:56:27;;;;;;;60.55;45.63;;;;;;;9.59;100.00;101963.06;5029128;28;20037;-58
2022/03/25 08:58:54;;;;;;;65.32;43.88;;;;;;;9.72;100.00;101961.91;5029838;28;20029;-58
2022/03/25 09:01:21;;;;;;;69.43;45.03;;;;;;;9.71;100.00;101941.81;5028580;28;20035;-59
2022/03/25 09:03:46;;;;;;;59.78;42.17;;;;;;;9.90;100.00;101942.28;5028123;28;20032;-58
2022/03/25 09:06:12;;;;;;;74.70;47.15;;;;;;;10.08;100.00;101957.59;5026897;28;20034;-58
2022/03/25 09:08:37;;;;;;;59.05;45.10;;;;;;;10.17;100.00;101960.91;5027590;28;20151;-59
2022/03/25 09:11:03;;;;;;;56.10;46.30;;;;;;;10.32;100.00;101962.31;5028766;28;20100;-58
2022/03/25 09:13:29;;;;;;;60.67;42.83;;;;;;;10.43;100.00;101964.69;5028394;28;20036;-58
2022/03/25 09:15:54;;;;;;;54.28;40.80;;;;;;;10.47;100.00;101956.69;5027610;28;20036;-58
2022/03/25 09:18:19;;;;;;;60.60;41.88;;;;;;;10.66;100.00;101972.84;5027978;28;21028;-58
2022/03/25 09:20:45;;;;;;;60.90;43.47;;;;;;;10.64;100.00;101945.75;5027140;28;20032;-58
2022/03/25 09:23:10;;;;;;;53.10;43.15;;;;;;;10.86;100.00;101962.69;5027835;28;20938;-58
2022/03/25 09:25:35;;;;;;;54.15;40.50;;;;;;;10.98;100.00;101962.38;5027525;28;20033;-58
2022/03/25 09:28:01;;;;;;;61.08;41.25;;;;;;;11.14;100.00;101973.34;5028044;28;20772;-58
2022/03/25 09:30:27;;;;;;;69.32;40.92;;;;;;;11.17;100.00;101966.22;5044972;28;20245;-59
2022/03/25 09:32:52;;;;;;;52.47;41.13;;;;;;;11.26;100.00;101973.84;5027663;28;20028;-58
2022/03/25 09:35:17;;;;;;;45.40;39.38;;;;;;;11.35;100.00;101967.50;5027536;28;20028;-58
2022/03/25 09:37:47;;;;;;;63.00;39.28;;;;;;;11.20;100.00;101931.94;5028447;28;20060;-58
2022/03/25 09:40:16;;;;;;;54.33;42.10;;;;;;;11.53;100.00;101955.56;5026479;28;20135;-58
2022/03/25 09:42:42;;;;;;;51.08;37.63;;;;;;;11.71;100.00;101976.13;5026864;28;20025;-59
2022/03/25 09:45:09;;;;;;;52.85;39.13;;;;;;;11.78;100.00;101975.91;5026694;28;20029;-58
2022/03/25 09:47:35;;;;;;;56.80;37.97;;;;;;;11.54;100.00;101929.19;5026790;28;20028;-58
2022/03/25 09:50:02;;;;;;;60.75;40.30;;;;;;;11.92;99.84;101993.94;5028630;28;20047;-59
2022/03/25 09:52:32;;;;;;;53.65;38.65;;;;;;;12.04;100.00;101984.78;5027393;28;20112;-59
2022/03/25 09:54:58;;;;;;;50.67;38.38;;;;;;;12.15;100.00;101980.03;5026535;28;20020;-59
2022/03/25 09:57:24;;;;;;;54.58;35.90;;;;;;;12.14;94.88;101970.41;5026766;28;20024;-58
2022/03/25 09:59:49;;;;;;;49.13;39.53;;;;;;;12.12;97.74;101951.16;5026329;28;20056;-58
2022/03/25 10:02:14;;;;;;;44.75;35.17;;;;;;;12.44;98.56;101984.38;5027873;28;20283;-58
2022/03/25 10:04:48;;;;;;;55.22;43.92;;;;;;;12.52;100.00;101985.00;5027540;28;20032;-58
2022/03/25 10:07:15;;;;;;;58.17;40.95;;;;;;;12.58;98.49;101990.94;5025057;28;20024;-59
2022/03/25 10:09:41;;;;;;;53.45;37.90;;;;;;;12.61;97.12;101984.69;5025940;28;20913;-58
2022/03/25 10:12:26;;;;;;;55.58;36.47;;;;;;;12.68;94.20;101987.06;5026029;28;20024;-58
2022/03/25 10:15:10;;;;;;;47.70;39.15;;;;;;;12.71;94.58;101988.75;5024507;28;20041;-58
2022/03/25 10:17:46;;;;;;;51.72;40.83;;;;;;;12.76;94.75;101981.53;5025591;28;20024;-59
2022/03/25 10:20:11;;;;;;;47.88;35.90;;;;;;;12.90;92.06;101989.00;5026759;28;20258;-58
2022/03/25 10:22:37;;;;;;;50.65;37.58;;;;;;;12.97;90.51;101985.25;5026732;28;20035;-58
2022/03/25 10:25:09;;;;;;;57.70;41.95;;;;;;;12.82;93.22;101950.53;5026725;28;20068;-58
2022/03/25 10:27:35;;;;;;;56.13;40.58;;;;;;;13.08;91.79;101976.00;5025947;28;20040;-58
2022/03/25 10:30:03;;;;;;;43.25;34.60;;;;;;;12.88;88.00;101928.34;5026200;28;20222;-58
2022/03/25 10:32:28;;;;;;;56.72;38.40;;;;;;;13.14;87.85;101956.50;5026684;28;20025;-58
2022/03/25 10:35:09;;;;;;;49.60;36.70;;;;;;;13.38;88.08;101975.88;5027834;28;20017;-58
2022/03/25 10:37:38;;;;;;;56.88;37.88;;;;;;;13.50;86.18;101981.56;5027970;28;20092;-58
2022/03/25 10:40:07;;;;;;;49.38;37.28;;;;;;;13.49;87.29;101965.75;5027436;28;20056;-59
2022/03/25 10:42:33;;;;;;;47.85;40.13;;;;;;;13.62;85.97;101980.28;5026367;28;20032;-59
2022/03/25 10:44:59;;;;;;;55.58;38.72;;;;;;;13.81;88.25;101983.94;5025931;28;20095;-59
2022/03/25 10:47:26;;;;;;;55.63;38.53;;;;;;;13.99;86.47;101985.00;5025763;28;20140;-59
2022/03/25 10:49:53;;;;;;;52.88;36.50;;;;;;;14.05;82.38;101969.78;5025584;28;20043;-58
2022/03/25 10:52:23;;;;;;;55.50;38.53;;;;;;;14.25;83.77;101974.25;5027337;28;20020;-59
2022/03/25 10:54:49;;;;;;;41.88;37.03;;;;;;;14.39;82.90;101979.03;5025755;28;20029;-59
2022/03/25 10:57:16;;;;;;;45.92;37.80;;;;;;;14.51;78.39;101978.50;5024197;28;20035;-59
2022/03/25 10:59:41;;;;;;;49.22;38.88;;;;;;;14.32;78.78;101942.22;5025398;28;20873;-59
2022/03/25 11:02:08;;;;;;;48.15;33.67;;;;;;;14.57;78.14;101963.25;5025796;28;20074;-58
2022/03/25 11:04:34;;;;;;;46.88;36.75;;;;;;;14.72;78.04;101973.22;5026890;28;20024;-58
2022/03/25 11:07:03;;;;;;;51.38;35.47;;;;;;;14.84;77.16;101969.16;5027141;28;20852;-59
2022/03/25 11:09:30;;;;;;;52.70;38.58;;;;;;;14.87;78.30;101963.72;5025030;28;20025;-59